sensor_id;sensor_type;location;lat;lon;timestamp;P1;durP1;ratioP1;P2;durP2;ratioP2
840;SDS011;406;48.566;13.450;2023-05-07T00:00:08;9.07;;;7.70;;
840;SDS011;406;48.566;13.450;2023-05-07T00:02:35;13.70;;;8.23;;
840;SDS011;406;48.566;13.450;2023-05-07T00:05:02;9.10;;;7.90;;
840;SDS011;406;48.566;13.450;2023-05-07T00:07:29;11.33;;;8.57;;
840;SDS011;406;48.566;13.450;2023-05-07T00:09:56;11.73;;;8.40;;
840;SDS011;406;48.566;13.450;2023-05-07T00:12:23;8.60;;;7.37;;
840;SDS011;406;48.566;13.450;2023-05-07T00:14:49;11.90;;;8.53;;
840;SDS011;406;48.566;13.450;2023-05-07T00:17:16;12.23;;;7.97;;
840;SDS011;406;48.566;13.450;2023-05-07T00:19:42;10.97;;;8.20;;
840;SDS011;406;48.566;13.450;2023-05-07T00:22:09;11.43;;;8.23;;
840;SDS011;406;48.566;13.450;2023-05-07T00:24:35;11.27;;;7.90;;
840;SDS011;406;48.566;13.450;2023-05-07T00:27:02;11.70;;;8.80;;
840;SDS011;406;48.566;13.450;2023-05-07T00:29:28;10.10;;;8.57;;
840;SDS011;406;48.566;13.450;2023-05-07T00:31:54;10.80;;;9.40;;
840;SDS011;406;48.566;13.450;2023-05-07T00:34:21;13.70;;;9.30;;
840;SDS011;406;48.566;13.450;2023-05-07T00:36:48;13.93;;;9.60;;
840;SDS011;406;48.566;13.450;2023-05-07T00:39:14;10.80;;;8.80;;
840;SDS011;406;48.566;13.450;2023-05-07T00:41:41;11.40;;;9.03;;
840;SDS011;406;48.566;13.450;2023-05-07T00:44:07;13.07;;;9.77;;
840;SDS011;406;48.566;13.450;2023-05-07T00:46:34;15.20;;;9.00;;
840;SDS011;406;48.566;13.450;2023-05-07T00:49:01;11.00;;;9.70;;
840;SDS011;406;48.566;13.450;2023-05-07T00:51:28;10.20;;;8.77;;
840;SDS011;406;48.566;13.450;2023-05-07T00:53:54;11.23;;;9.03;;
840;SDS011;406;48.566;13.450;2023-05-07T00:56:21;11.73;;;9.77;;
840;SDS011;406;48.566;13.450;2023-05-07T00:58:48;10.07;;;9.03;;
840;SDS011;406;48.566;13.450;2023-05-07T01:01:15;9.90;;;8.40;;
840;SDS011;406;48.566;13.450;2023-05-07T01:03:42;9.60;;;8.60;;
840;SDS011;406;48.566;13.450;2023-05-07T01:06:09;12.63;;;8.70;;
840;SDS011;406;48.566;13.450;2023-05-07T01:08:39;12.87;;;8.57;;
840;SDS011;406;48.566;13.450;2023-05-07T01:11:09;10.97;;;8.80;;
840;SDS011;406;48.566;13.450;2023-05-07T01:13:36;11.13;;;8.83;;
840;SDS011;406;48.566;13.450;2023-05-07T01:16:03;9.17;;;8.30;;
840;SDS011;406;48.566;13.450;2023-05-07T01:18:30;10.60;;;9.37;;
840;SDS011;406;48.566;13.450;2023-05-07T01:20:58;12.03;;;9.00;;
840;SDS011;406;48.566;13.450;2023-05-07T01:23:26;9.63;;;7.80;;
840;SDS011;406;48.566;13.450;2023-05-07T01:25:54;11.50;;;9.00;;
840;SDS011;406;48.566;13.450;2023-05-07T01:28:23;10.80;;;8.97;;
840;SDS011;406;48.566;13.450;2023-05-07T01:30:51;10.93;;;9.77;;
840;SDS011;406;48.566;13.450;2023-05-07T01:33:20;11.37;;;10.00;;
840;SDS011;406;48.566;13.450;2023-05-07T01:35:51;13.03;;;9.00;;
840;SDS011;406;48.566;13.450;2023-05-07T01:38:20;13.77;;;8.70;;
840;SDS011;406;48.566;13.450;2023-05-07T01:40:48;11.03;;;8.37;;
840;SDS011;406;48.566;13.450;2023-05-07T01:43:14;10.17;;;8.77;;
840;SDS011;406;48.566;13.450;2023-05-07T01:45:41;12.93;;;9.70;;
840;SDS011;406;48.566;13.450;2023-05-07T01:48:09;10.47;;;9.30;;
840;SDS011;406;48.566;13.450;2023-05-07T01:50:36;10.73;;;8.73;;
840;SDS011;406;48.566;13.450;2023-05-07T01:53:03;11.53;;;8.50;;
840;SDS011;406;48.566;13.450;2023-05-07T01:55:30;10.10;;;8.00;;
840;SDS011;406;48.566;13.450;2023-05-07T01:57:57;13.53;;;8.77;;
840;SDS011;406;48.566;13.450;2023-05-07T02:00:24;10.53;;;7.20;;
840;SDS011;406;48.566;13.450;2023-05-07T02:02:51;16.50;;;8.07;;
840;SDS011;406;48.566;13.450;2023-05-07T02:05:27;9.40;;;8.13;;
840;SDS011;406;48.566;13.450;2023-05-07T02:07:59;9.73;;;7.77;;
840;SDS011;406;48.566;13.450;2023-05-07T02:10:27;12.67;;;9.37;;
840;SDS011;406;48.566;13.450;2023-05-07T02:12:53;10.73;;;9.63;;
840;SDS011;406;48.566;13.450;2023-05-07T02:15:20;10.43;;;8.63;;
840;SDS011;406;48.566;13.450;2023-05-07T02:18:03;8.90;;;7.90;;
840;SDS011;406;48.566;13.450;2023-05-07T02:20:32;8.60;;;7.63;;
840;SDS011;406;48.566;13.450;2023-05-07T02:22:59;8.80;;;7.90;;
840;SDS011;406;48.566;13.450;2023-05-07T02:25:28;10.60;;;8.37;;
840;SDS011;406;48.566;13.450;2023-05-07T02:27:55;12.43;;;9.17;;
840;SDS011;406;48.566;13.450;2023-05-07T02:30:30;11.90;;;9.10;;
840;SDS011;406;48.566;13.450;2023-05-07T02:32:58;9.70;;;8.70;;
840;SDS011;406;48.566;13.450;2023-05-07T02:35:25;10.87;;;7.63;;
840;SDS011;406;48.566;13.450;2023-05-07T02:37:52;8.77;;;7.47;;
840;SDS011;406;48.566;13.450;2023-05-07T02:40:18;8.03;;;6.73;;
840;SDS011;406;48.566;13.450;2023-05-07T02:42:45;9.70;;;8.50;;
840;SDS011;406;48.566;13.450;2023-05-07T02:45:12;7.70;;;7.00;;
840;SDS011;406;48.566;13.450;2023-05-07T02:47:38;8.73;;;7.83;;
840;SDS011;406;48.566;13.450;2023-05-07T02:50:05;14.87;;;7.20;;
840;SDS011;406;48.566;13.450;2023-05-07T02:52:32;11.63;;;8.07;;
840;SDS011;406;48.566;13.450;2023-05-07T02:54:59;9.00;;;7.03;;
840;SDS011;406;48.566;13.450;2023-05-07T02:57:26;8.73;;;7.53;;
840;SDS011;406;48.566;13.450;2023-05-07T02:59:52;10.00;;;9.00;;
840;SDS011;406;48.566;13.450;2023-05-07T03:02:20;9.13;;;7.20;;
840;SDS011;406;48.566;13.450;2023-05-07T03:04:46;8.23;;;7.33;;
840;SDS011;406;48.566;13.450;2023-05-07T03:07:13;9.50;;;8.10;;
840;SDS011;406;48.566;13.450;2023-05-07T03:09:40;9.80;;;8.10;;
840;SDS011;406;48.566;13.450;2023-05-07T03:12:07;12.17;;;9.47;;
840;SDS011;406;48.566;13.450;2023-05-07T03:14:33;7.77;;;6.97;;
840;SDS011;406;48.566;13.450;2023-05-07T03:17:00;12.10;;;7.27;;
840;SDS011;406;48.566;13.450;2023-05-07T03:19:27;8.40;;;7.37;;
840;SDS011;406;48.566;13.450;2023-05-07T03:21:53;7.60;;;6.60;;
840;SDS011;406;48.566;13.450;2023-05-07T03:24:20;10.73;;;7.03;;
840;SDS011;406;48.566;13.450;2023-05-07T03:26:46;8.37;;;7.40;;
840;SDS011;406;48.566;13.450;2023-05-07T03:29:13;8.70;;;7.30;;
840;SDS011;406;48.566;13.450;2023-05-07T03:31:39;7.53;;;6.73;;
840;SDS011;406;48.566;13.450;2023-05-07T03:34:06;11.07;;;8.07;;
840;SDS011;406;48.566;13.450;2023-05-07T03:36:32;8.77;;;7.07;;
840;SDS011;406;48.566;13.450;2023-05-07T03:38:59;9.53;;;7.60;;
840;SDS011;406;48.566;13.450;2023-05-07T03:41:33;10.80;;;7.87;;
840;SDS011;406;48.566;13.450;2023-05-07T03:44:00;11.60;;;8.37;;
840;SDS011;406;48.566;13.450;2023-05-07T03:46:27;7.97;;;7.17;;
840;SDS011;406;48.566;13.450;2023-05-07T03:48:54;9.30;;;7.70;;
840;SDS011;406;48.566;13.450;2023-05-07T03:51:21;9.00;;;7.57;;
840;SDS011;406;48.566;13.450;2023-05-07T03:53:48;10.90;;;7.30;;
840;SDS011;406;48.566;13.450;2023-05-07T03:56:14;8.27;;;7.47;;
840;SDS011;406;48.566;13.450;2023-05-07T03:58:46;9.20;;;7.50;;
840;SDS011;406;48.566;13.450;2023-05-07T04:01:14;8.63;;;7.50;;
840;SDS011;406;48.566;13.450;2023-05-07T04:03:40;7.90;;;7.07;;
840;SDS011;406;48.566;13.450;2023-05-07T04:06:07;7.57;;;6.77;;
840;SDS011;406;48.566;13.450;2023-05-07T04:08:35;10.77;;;7.87;;
840;SDS011;406;48.566;13.450;2023-05-07T04:11:03;8.80;;;7.47;;
840;SDS011;406;48.566;13.450;2023-05-07T04:13:31;8.50;;;6.77;;
840;SDS011;406;48.566;13.450;2023-05-07T04:16:01;9.50;;;7.33;;
840;SDS011;406;48.566;13.450;2023-05-07T04:18:28;8.13;;;7.33;;
840;SDS011;406;48.566;13.450;2023-05-07T04:20:55;9.13;;;7.30;;
840;SDS011;406;48.566;13.450;2023-05-07T04:23:21;9.30;;;8.07;;
840;SDS011;406;48.566;13.450;2023-05-07T04:25:48;10.40;;;9.10;;
840;SDS011;406;48.566;13.450;2023-05-07T04:28:22;10.43;;;8.23;;
840;SDS011;406;48.566;13.450;2023-05-07T04:30:50;8.90;;;7.33;;
840;SDS011;406;48.566;13.450;2023-05-07T04:33:17;11.17;;;8.90;;
840;SDS011;406;48.566;13.450;2023-05-07T04:35:45;10.13;;;7.80;;
840;SDS011;406;48.566;13.450;2023-05-07T04:38:12;12.00;;;7.50;;
840;SDS011;406;48.566;13.450;2023-05-07T04:40:39;9.03;;;8.13;;
840;SDS011;406;48.566;13.450;2023-05-07T04:43:08;9.43;;;8.40;;
840;SDS011;406;48.566;13.450;2023-05-07T04:45:42;8.73;;;7.57;;
840;SDS011;406;48.566;13.450;2023-05-07T04:48:09;8.57;;;7.67;;
840;SDS011;406;48.566;13.450;2023-05-07T04:50:38;9.97;;;7.60;;
840;SDS011;406;48.566;13.450;2023-05-07T04:53:06;9.67;;;8.67;;
840;SDS011;406;48.566;13.450;2023-05-07T04:55:32;9.43;;;8.30;;
840;SDS011;406;48.566;13.450;2023-05-07T04:57:59;11.73;;;10.53;;
840;SDS011;406;48.566;13.450;2023-05-07T05:00:29;9.93;;;8.93;;
840;SDS011;406;48.566;13.450;2023-05-07T05:02:56;10.07;;;8.23;;
840;SDS011;406;48.566;13.450;2023-05-07T05:05:23;12.40;;;8.83;;
840;SDS011;406;48.566;13.450;2023-05-07T05:07:52;10.67;;;9.57;;
840;SDS011;406;48.566;13.450;2023-05-07T05:10:19;9.07;;;8.17;;
840;SDS011;406;48.566;13.450;2023-05-07T05:12:49;10.70;;;9.40;;
840;SDS011;406;48.566;13.450;2023-05-07T05:15:16;9.70;;;8.30;;
840;SDS011;406;48.566;13.450;2023-05-07T05:17:43;10.90;;;9.27;;
840;SDS011;406;48.566;13.450;2023-05-07T05:20:10;8.90;;;7.57;;
840;SDS011;406;48.566;13.450;2023-05-07T05:22:40;8.33;;;7.53;;
840;SDS011;406;48.566;13.450;2023-05-07T05:25:08;8.50;;;7.57;;
840;SDS011;406;48.566;13.450;2023-05-07T05:27:34;10.00;;;8.40;;
840;SDS011;406;48.566;13.450;2023-05-07T05:30:03;8.47;;;7.60;;
840;SDS011;406;48.566;13.450;2023-05-07T05:32:30;8.57;;;7.57;;
840;SDS011;406;48.566;13.450;2023-05-07T05:34:58;8.23;;;7.43;;
840;SDS011;406;48.566;13.450;2023-05-07T05:37:24;8.23;;;7.27;;
840;SDS011;406;48.566;13.450;2023-05-07T05:39:52;8.80;;;7.90;;
840;SDS011;406;48.566;13.450;2023-05-07T05:42:19;9.53;;;8.60;;
840;SDS011;406;48.566;13.450;2023-05-07T05:44:46;8.70;;;7.90;;
840;SDS011;406;48.566;13.450;2023-05-07T05:47:13;10.00;;;7.70;;
840;SDS011;406;48.566;13.450;2023-05-07T05:49:40;8.90;;;8.00;;
840;SDS011;406;48.566;13.450;2023-05-07T05:52:08;9.53;;;7.67;;
840;SDS011;406;48.566;13.450;2023-05-07T05:54:36;9.63;;;8.27;;
840;SDS011;406;48.566;13.450;2023-05-07T05:57:03;10.40;;;6.80;;
840;SDS011;406;48.566;13.450;2023-05-07T05:59:30;11.77;;;8.30;;
840;SDS011;406;48.566;13.450;2023-05-07T06:01:57;10.23;;;7.60;;
840;SDS011;406;48.566;13.450;2023-05-07T06:04:24;10.50;;;8.10;;
840;SDS011;406;48.566;13.450;2023-05-07T06:06:51;12.50;;;8.67;;
840;SDS011;406;48.566;13.450;2023-05-07T06:09:17;10.50;;;7.77;;
840;SDS011;406;48.566;13.450;2023-05-07T06:11:44;9.40;;;7.97;;
840;SDS011;406;48.566;13.450;2023-05-07T06:14:11;8.40;;;7.60;;
840;SDS011;406;48.566;13.450;2023-05-07T06:16:38;10.00;;;8.23;;
840;SDS011;406;48.566;13.450;2023-05-07T06:19:06;8.47;;;7.57;;
840;SDS011;406;48.566;13.450;2023-05-07T06:21:33;9.10;;;8.00;;
840;SDS011;406;48.566;13.450;2023-05-07T06:23:59;7.33;;;6.53;;
840;SDS011;406;48.566;13.450;2023-05-07T06:26:26;7.70;;;6.90;;
840;SDS011;406;48.566;13.450;2023-05-07T06:28:53;7.97;;;7.17;;
840;SDS011;406;48.566;13.450;2023-05-07T06:31:19;6.90;;;6.20;;
840;SDS011;406;48.566;13.450;2023-05-07T06:34:01;7.43;;;6.80;;
840;SDS011;406;48.566;13.450;2023-05-07T06:36:33;8.50;;;7.60;;
840;SDS011;406;48.566;13.450;2023-05-07T06:39:05;8.80;;;7.90;;
840;SDS011;406;48.566;13.450;2023-05-07T06:41:31;7.57;;;6.70;;
840;SDS011;406;48.566;13.450;2023-05-07T06:44:05;9.93;;;7.50;;
840;SDS011;406;48.566;13.450;2023-05-07T06:46:42;9.27;;;8.37;;
840;SDS011;406;48.566;13.450;2023-05-07T06:49:09;8.70;;;7.33;;
840;SDS011;406;48.566;13.450;2023-05-07T06:51:36;6.70;;;6.03;;
840;SDS011;406;48.566;13.450;2023-05-07T06:54:03;9.53;;;7.90;;
840;SDS011;406;48.566;13.450;2023-05-07T06:56:32;7.33;;;6.63;;
840;SDS011;406;48.566;13.450;2023-05-07T06:59:00;9.10;;;7.27;;
840;SDS011;406;48.566;13.450;2023-05-07T07:01:31;8.30;;;7.10;;
840;SDS011;406;48.566;13.450;2023-05-07T07:04:00;6.20;;;5.43;;
840;SDS011;406;48.566;13.450;2023-05-07T07:06:28;7.63;;;6.13;;
840;SDS011;406;48.566;13.450;2023-05-07T07:08:59;7.57;;;6.17;;
840;SDS011;406;48.566;13.450;2023-05-07T07:11:27;8.73;;;6.30;;
840;SDS011;406;48.566;13.450;2023-05-07T07:13:53;6.53;;;5.70;;
840;SDS011;406;48.566;13.450;2023-05-07T07:16:21;7.47;;;6.50;;
840;SDS011;406;48.566;13.450;2023-05-07T07:18:50;6.93;;;6.10;;
840;SDS011;406;48.566;13.450;2023-05-07T07:21:18;6.13;;;5.17;;
840;SDS011;406;48.566;13.450;2023-05-07T07:23:45;8.13;;;5.60;;
840;SDS011;406;48.566;13.450;2023-05-07T07:26:12;6.80;;;6.20;;
840;SDS011;406;48.566;13.450;2023-05-07T07:28:42;5.53;;;4.93;;
840;SDS011;406;48.566;13.450;2023-05-07T07:31:12;6.30;;;5.47;;
840;SDS011;406;48.566;13.450;2023-05-07T07:33:39;6.93;;;4.77;;
840;SDS011;406;48.566;13.450;2023-05-07T07:36:06;8.63;;;6.10;;
840;SDS011;406;48.566;13.450;2023-05-07T07:38:34;5.77;;;4.93;;
840;SDS011;406;48.566;13.450;2023-05-07T07:41:01;5.20;;;4.70;;
840;SDS011;406;48.566;13.450;2023-05-07T07:43:29;5.80;;;5.10;;
840;SDS011;406;48.566;13.450;2023-05-07T07:45:55;6.33;;;5.03;;
840;SDS011;406;48.566;13.450;2023-05-07T07:48:22;5.00;;;4.50;;
840;SDS011;406;48.566;13.450;2023-05-07T07:50:50;7.53;;;5.50;;
840;SDS011;406;48.566;13.450;2023-05-07T07:53:19;8.37;;;5.13;;
840;SDS011;406;48.566;13.450;2023-05-07T07:55:46;6.10;;;5.03;;
840;SDS011;406;48.566;13.450;2023-05-07T07:58:16;7.03;;;5.03;;
840;SDS011;406;48.566;13.450;2023-05-07T08:00:42;6.43;;;4.43;;
840;SDS011;406;48.566;13.450;2023-05-07T08:03:10;5.77;;;4.37;;
840;SDS011;406;48.566;13.450;2023-05-07T08:05:41;4.83;;;4.40;;
840;SDS011;406;48.566;13.450;2023-05-07T08:08:07;5.13;;;4.47;;
840;SDS011;406;48.566;13.450;2023-05-07T08:10:37;5.27;;;4.70;;
840;SDS011;406;48.566;13.450;2023-05-07T08:13:11;4.43;;;4.03;;
840;SDS011;406;48.566;13.450;2023-05-07T08:15:39;4.93;;;4.13;;
840;SDS011;406;48.566;13.450;2023-05-07T08:18:06;6.60;;;4.87;;
840;SDS011;406;48.566;13.450;2023-05-07T08:20:33;7.00;;;4.43;;
840;SDS011;406;48.566;13.450;2023-05-07T08:23:03;7.60;;;4.60;;
840;SDS011;406;48.566;13.450;2023-05-07T08:25:30;5.20;;;4.60;;
840;SDS011;406;48.566;13.450;2023-05-07T08:27:59;4.67;;;4.27;;
840;SDS011;406;48.566;13.450;2023-05-07T08:30:26;5.23;;;4.73;;
840;SDS011;406;48.566;13.450;2023-05-07T08:32:53;4.77;;;3.93;;
840;SDS011;406;48.566;13.450;2023-05-07T08:35:20;5.90;;;4.90;;
840;SDS011;406;48.566;13.450;2023-05-07T08:37:46;5.90;;;4.70;;
840;SDS011;406;48.566;13.450;2023-05-07T08:40:14;5.20;;;4.33;;
840;SDS011;406;48.566;13.450;2023-05-07T08:42:41;5.27;;;4.03;;
840;SDS011;406;48.566;13.450;2023-05-07T08:45:09;5.50;;;4.70;;
840;SDS011;406;48.566;13.450;2023-05-07T08:47:42;6.93;;;4.90;;
840;SDS011;406;48.566;13.450;2023-05-07T08:50:15;4.70;;;4.23;;
840;SDS011;406;48.566;13.450;2023-05-07T08:52:42;4.90;;;4.40;;
840;SDS011;406;48.566;13.450;2023-05-07T08:55:09;7.13;;;6.07;;
840;SDS011;406;48.566;13.450;2023-05-07T08:57:36;5.40;;;4.33;;
840;SDS011;406;48.566;13.450;2023-05-07T09:00:06;4.73;;;3.67;;
840;SDS011;406;48.566;13.450;2023-05-07T09:02:36;5.23;;;4.40;;
840;SDS011;406;48.566;13.450;2023-05-07T09:05:04;6.67;;;4.03;;
840;SDS011;406;48.566;13.450;2023-05-07T09:07:32;5.40;;;4.90;;
840;SDS011;406;48.566;13.450;2023-05-07T09:10:00;4.63;;;4.23;;
840;SDS011;406;48.566;13.450;2023-05-07T09:12:29;4.57;;;4.10;;
840;SDS011;406;48.566;13.450;2023-05-07T09:14:56;5.77;;;4.87;;
840;SDS011;406;48.566;13.450;2023-05-07T09:17:23;5.80;;;4.03;;
840;SDS011;406;48.566;13.450;2023-05-07T09:19:49;5.13;;;4.63;;
840;SDS011;406;48.566;13.450;2023-05-07T09:22:16;5.37;;;4.57;;
840;SDS011;406;48.566;13.450;2023-05-07T09:24:52;3.60;;;3.30;;
840;SDS011;406;48.566;13.450;2023-05-07T09:27:22;5.00;;;4.50;;
840;SDS011;406;48.566;13.450;2023-05-07T09:29:49;5.20;;;4.20;;
840;SDS011;406;48.566;13.450;2023-05-07T09:32:16;4.37;;;3.97;;
840;SDS011;406;48.566;13.450;2023-05-07T09:34:42;4.40;;;4.00;;
840;SDS011;406;48.566;13.450;2023-05-07T09:37:11;7.40;;;3.90;;
840;SDS011;406;48.566;13.450;2023-05-07T09:39:45;4.23;;;3.83;;
840;SDS011;406;48.566;13.450;2023-05-07T09:42:16;4.70;;;4.30;;
840;SDS011;406;48.566;13.450;2023-05-07T09:44:43;4.47;;;3.87;;
840;SDS011;406;48.566;13.450;2023-05-07T09:47:16;4.27;;;3.90;;
840;SDS011;406;48.566;13.450;2023-05-07T09:49:48;4.57;;;3.20;;
840;SDS011;406;48.566;13.450;2023-05-07T09:52:18;4.03;;;3.50;;
840;SDS011;406;48.566;13.450;2023-05-07T09:54:49;3.87;;;3.47;;
840;SDS011;406;48.566;13.450;2023-05-07T09:57:18;4.40;;;4.00;;
840;SDS011;406;48.566;13.450;2023-05-07T09:59:50;5.60;;;4.70;;
840;SDS011;406;48.566;13.450;2023-05-07T10:02:19;5.53;;;4.13;;
840;SDS011;406;48.566;13.450;2023-05-07T10:04:50;4.50;;;3.50;;
840;SDS011;406;48.566;13.450;2023-05-07T10:07:21;6.73;;;4.60;;
840;SDS011;406;48.566;13.450;2023-05-07T10:09:51;4.80;;;4.30;;
840;SDS011;406;48.566;13.450;2023-05-07T10:12:26;4.70;;;3.40;;
840;SDS011;406;48.566;13.450;2023-05-07T10:14:54;5.07;;;3.93;;
840;SDS011;406;48.566;13.450;2023-05-07T10:17:21;3.30;;;3.00;;
840;SDS011;406;48.566;13.450;2023-05-07T10:19:49;5.57;;;4.00;;
840;SDS011;406;48.566;13.450;2023-05-07T10:22:17;4.10;;;3.70;;
840;SDS011;406;48.566;13.450;2023-05-07T10:24:45;3.87;;;3.50;;
840;SDS011;406;48.566;13.450;2023-05-07T10:27:16;5.00;;;4.50;;
840;SDS011;406;48.566;13.450;2023-05-07T10:32:49;4.77;;;4.00;;
840;SDS011;406;48.566;13.450;2023-05-07T10:35:26;3.93;;;3.53;;
840;SDS011;406;48.566;13.450;2023-05-07T10:37:56;5.20;;;3.30;;
840;SDS011;406;48.566;13.450;2023-05-07T10:40:25;2.83;;;2.63;;
840;SDS011;406;48.566;13.450;2023-05-07T10:42:54;5.30;;;3.37;;
840;SDS011;406;48.566;13.450;2023-05-07T10:45:21;4.87;;;3.20;;
840;SDS011;406;48.566;13.450;2023-05-07T10:54:20;4.23;;;3.43;;
840;SDS011;406;48.566;13.450;2023-05-07T10:57:32;6.00;;;4.70;;
840;SDS011;406;48.566;13.450;2023-05-07T11:00:03;4.73;;;3.60;;
840;SDS011;406;48.566;13.450;2023-05-07T11:05:32;2.93;;;2.73;;
840;SDS011;406;48.566;13.450;2023-05-07T11:08:24;3.17;;;2.60;;
840;SDS011;406;48.566;13.450;2023-05-07T11:10:59;3.80;;;3.20;;
840;SDS011;406;48.566;13.450;2023-05-07T11:16:17;3.40;;;2.83;;
840;SDS011;406;48.566;13.450;2023-05-07T11:18:47;3.00;;;2.77;;
840;SDS011;406;48.566;13.450;2023-05-07T11:21:36;3.93;;;2.40;;
840;SDS011;406;48.566;13.450;2023-05-07T11:24:09;2.90;;;2.60;;
840;SDS011;406;48.566;13.450;2023-05-07T11:26:53;5.33;;;3.53;;
840;SDS011;406;48.566;13.450;2023-05-07T11:29:22;4.60;;;2.83;;
840;SDS011;406;48.566;13.450;2023-05-07T11:31:55;3.90;;;2.93;;
840;SDS011;406;48.566;13.450;2023-05-07T11:34:26;5.60;;;3.20;;
840;SDS011;406;48.566;13.450;2023-05-07T11:36:54;3.27;;;2.97;;
840;SDS011;406;48.566;13.450;2023-05-07T11:39:33;4.70;;;3.27;;
840;SDS011;406;48.566;13.450;2023-05-07T11:42:02;3.30;;;2.47;;
840;SDS011;406;48.566;13.450;2023-05-07T11:44:44;2.50;;;2.30;;
840;SDS011;406;48.566;13.450;2023-05-07T11:47:16;3.67;;;2.80;;
840;SDS011;406;48.566;13.450;2023-05-07T11:49:45;3.20;;;2.90;;
840;SDS011;406;48.566;13.450;2023-05-07T11:52:18;3.20;;;2.90;;
840;SDS011;406;48.566;13.450;2023-05-07T11:54:52;5.73;;;3.07;;
840;SDS011;406;48.566;13.450;2023-05-07T11:57:24;3.60;;;3.10;;
840;SDS011;406;48.566;13.450;2023-05-07T11:59:54;3.00;;;2.33;;
840;SDS011;406;48.566;13.450;2023-05-07T12:02:21;5.70;;;2.60;;
840;SDS011;406;48.566;13.450;2023-05-07T12:04:48;4.83;;;3.17;;
840;SDS011;406;48.566;13.450;2023-05-07T12:07:14;3.13;;;2.90;;
840;SDS011;406;48.566;13.450;2023-05-07T12:09:41;4.17;;;2.70;;
840;SDS011;406;48.566;13.450;2023-05-07T12:12:08;3.27;;;2.97;;
840;SDS011;406;48.566;13.450;2023-05-07T12:14:42;3.47;;;3.17;;
840;SDS011;406;48.566;13.450;2023-05-07T12:17:09;4.10;;;3.30;;
840;SDS011;406;48.566;13.450;2023-05-07T12:19:37;3.97;;;2.80;;
840;SDS011;406;48.566;13.450;2023-05-07T12:22:05;3.17;;;2.90;;
840;SDS011;406;48.566;13.450;2023-05-07T12:24:48;3.77;;;3.40;;
840;SDS011;406;48.566;13.450;2023-05-07T12:27:16;4.60;;;3.17;;
840;SDS011;406;48.566;13.450;2023-05-07T12:29:45;3.50;;;3.20;;
840;SDS011;406;48.566;13.450;2023-05-07T12:32:13;4.10;;;3.30;;
840;SDS011;406;48.566;13.450;2023-05-07T12:34:43;3.60;;;3.30;;
840;SDS011;406;48.566;13.450;2023-05-07T12:37:11;4.50;;;3.13;;
840;SDS011;406;48.566;13.450;2023-05-07T12:39:48;3.63;;;3.10;;
840;SDS011;406;48.566;13.450;2023-05-07T12:42:15;5.13;;;4.20;;
840;SDS011;406;48.566;13.450;2023-05-07T12:44:43;4.77;;;4.27;;
840;SDS011;406;48.566;13.450;2023-05-07T12:47:11;4.83;;;4.40;;
840;SDS011;406;48.566;13.450;2023-05-07T12:49:38;4.10;;;3.70;;
840;SDS011;406;48.566;13.450;2023-05-07T12:52:06;5.03;;;3.80;;
840;SDS011;406;48.566;13.450;2023-05-07T12:54:33;5.00;;;4.33;;
840;SDS011;406;48.566;13.450;2023-05-07T12:57:09;6.67;;;3.30;;
840;SDS011;406;48.566;13.450;2023-05-07T12:59:36;4.03;;;3.40;;
840;SDS011;406;48.566;13.450;2023-05-07T13:02:04;3.37;;;3.07;;
840;SDS011;406;48.566;13.450;2023-05-07T13:04:31;3.10;;;2.80;;
840;SDS011;406;48.566;13.450;2023-05-07T13:06:58;4.50;;;4.00;;
840;SDS011;406;48.566;13.450;2023-05-07T13:09:24;3.30;;;3.00;;
840;SDS011;406;48.566;13.450;2023-05-07T13:11:52;4.20;;;3.80;;
840;SDS011;406;48.566;13.450;2023-05-07T13:14:19;3.10;;;2.80;;
840;SDS011;406;48.566;13.450;2023-05-07T13:16:47;3.20;;;2.70;;
840;SDS011;406;48.566;13.450;2023-05-07T13:19:14;3.63;;;3.33;;
840;SDS011;406;48.566;13.450;2023-05-07T13:21:41;3.23;;;2.87;;
840;SDS011;406;48.566;13.450;2023-05-07T13:24:07;12.20;;;3.40;;
840;SDS011;406;48.566;13.450;2023-05-07T13:26:34;4.43;;;4.03;;
840;SDS011;406;48.566;13.450;2023-05-07T13:29:01;3.23;;;2.93;;
840;SDS011;406;48.566;13.450;2023-05-07T13:31:27;3.70;;;2.77;;
840;SDS011;406;48.566;13.450;2023-05-07T13:33:54;3.00;;;2.70;;
840;SDS011;406;48.566;13.450;2023-05-07T13:36:22;5.87;;;3.63;;
840;SDS011;406;48.566;13.450;2023-05-07T13:38:49;4.33;;;3.37;;
840;SDS011;406;48.566;13.450;2023-05-07T13:41:16;2.97;;;2.53;;
840;SDS011;406;48.566;13.450;2023-05-07T13:43:43;3.93;;;3.53;;
840;SDS011;406;48.566;13.450;2023-05-07T13:46:09;3.10;;;2.90;;
840;SDS011;406;48.566;13.450;2023-05-07T13:48:36;3.40;;;2.70;;
840;SDS011;406;48.566;13.450;2023-05-07T13:51:02;2.90;;;2.23;;
840;SDS011;406;48.566;13.450;2023-05-07T13:53:29;6.30;;;3.00;;
840;SDS011;406;48.566;13.450;2023-05-07T13:55:55;2.53;;;2.13;;
840;SDS011;406;48.566;13.450;2023-05-07T13:58:22;2.93;;;2.63;;
840;SDS011;406;48.566;13.450;2023-05-07T14:00:48;7.73;;;2.67;;
840;SDS011;406;48.566;13.450;2023-05-07T14:03:15;2.47;;;2.27;;
840;SDS011;406;48.566;13.450;2023-05-07T14:05:43;2.47;;;2.20;;
840;SDS011;406;48.566;13.450;2023-05-07T14:08:09;8.87;;;2.57;;
840;SDS011;406;48.566;13.450;2023-05-07T14:10:37;2.37;;;2.10;;
840;SDS011;406;48.566;13.450;2023-05-07T14:13:03;2.30;;;2.10;;
840;SDS011;406;48.566;13.450;2023-05-07T14:15:30;2.80;;;2.60;;
840;SDS011;406;48.566;13.450;2023-05-07T14:17:58;2.97;;;2.67;;
840;SDS011;406;48.566;13.450;2023-05-07T14:20:25;2.70;;;2.50;;
840;SDS011;406;48.566;13.450;2023-05-07T14:22:52;3.00;;;2.13;;
840;SDS011;406;48.566;13.450;2023-05-07T14:25:18;3.27;;;2.13;;
840;SDS011;406;48.566;13.450;2023-05-07T14:27:48;4.03;;;2.17;;
840;SDS011;406;48.566;13.450;2023-05-07T14:30:15;4.70;;;2.87;;
840;SDS011;406;48.566;13.450;2023-05-07T14:32:43;2.87;;;2.20;;
840;SDS011;406;48.566;13.450;2023-05-07T14:35:09;2.53;;;2.00;;
840;SDS011;406;48.566;13.450;2023-05-07T14:37:36;2.87;;;1.90;;
840;SDS011;406;48.566;13.450;2023-05-07T14:40:03;2.57;;;2.37;;
840;SDS011;406;48.566;13.450;2023-05-07T14:42:30;2.13;;;1.93;;
840;SDS011;406;48.566;13.450;2023-05-07T14:44:56;2.23;;;2.03;;
840;SDS011;406;48.566;13.450;2023-05-07T14:47:23;2.17;;;1.97;;
840;SDS011;406;48.566;13.450;2023-05-07T14:49:49;2.70;;;2.20;;
840;SDS011;406;48.566;13.450;2023-05-07T14:52:16;2.90;;;2.10;;
840;SDS011;406;48.566;13.450;2023-05-07T14:54:42;2.33;;;2.07;;
840;SDS011;406;48.566;13.450;2023-05-07T14:57:09;2.50;;;2.20;;
840;SDS011;406;48.566;13.450;2023-05-07T14:59:37;4.20;;;2.43;;
840;SDS011;406;48.566;13.450;2023-05-07T15:02:04;4.60;;;2.13;;
840;SDS011;406;48.566;13.450;2023-05-07T15:04:32;2.90;;;1.93;;
840;SDS011;406;48.566;13.450;2023-05-07T15:06:59;2.57;;;2.13;;
840;SDS011;406;48.566;13.450;2023-05-07T15:09:26;7.27;;;2.27;;
840;SDS011;406;48.566;13.450;2023-05-07T15:11:52;3.70;;;1.90;;
840;SDS011;406;48.566;13.450;2023-05-07T15:14:19;2.33;;;2.10;;
840;SDS011;406;48.566;13.450;2023-05-07T15:16:48;2.20;;;1.67;;
840;SDS011;406;48.566;13.450;2023-05-07T15:19:14;2.23;;;2.00;;
840;SDS011;406;48.566;13.450;2023-05-07T15:21:42;2.10;;;1.90;;
840;SDS011;406;48.566;13.450;2023-05-07T15:24:09;2.93;;;2.70;;
840;SDS011;406;48.566;13.450;2023-05-07T15:26:35;3.07;;;2.40;;
840;SDS011;406;48.566;13.450;2023-05-07T15:29:02;3.13;;;2.40;;
840;SDS011;406;48.566;13.450;2023-05-07T15:31:34;5.00;;;2.40;;
840;SDS011;406;48.566;13.450;2023-05-07T15:34:00;2.97;;;2.30;;
840;SDS011;406;48.566;13.450;2023-05-07T15:36:27;2.57;;;2.37;;
840;SDS011;406;48.566;13.450;2023-05-07T15:38:53;2.77;;;2.53;;
840;SDS011;406;48.566;13.450;2023-05-07T15:41:20;2.90;;;2.00;;
840;SDS011;406;48.566;13.450;2023-05-07T15:43:48;4.20;;;2.43;;
840;SDS011;406;48.566;13.450;2023-05-07T15:46:17;3.13;;;2.87;;
840;SDS011;406;48.566;13.450;2023-05-07T15:48:50;2.63;;;2.03;;